createdAt,value
2023-04-12T00:00:11.652Z,4.85
2023-04-12T00:05:16.529Z,4.90
2023-04-12T00:10:18.281Z,4.99
2023-04-12T00:15:24.454Z,4.97
2023-04-12T00:20:27.238Z,5.01
2023-04-12T00:25:29.109Z,5.12
2023-04-12T00:30:30.955Z,5.21
2023-04-12T00:35:32.692Z,5.26
2023-04-12T00:40:40.097Z,5.29
2023-04-12T00:45:44.849Z,5.29
2023-04-12T00:50:47.690Z,5.30
2023-04-12T00:55:50.846Z,5.29
2023-04-12T01:00:57.303Z,5.34
2023-04-12T01:06:14.168Z,5.36
2023-04-12T01:11:31.892Z,5.39
2023-04-12T01:16:47.725Z,5.44
2023-04-12T01:22:02.669Z,5.47
2023-04-12T01:27:11.244Z,5.47
2023-04-12T01:32:15.329Z,5.51
2023-04-12T01:37:19.918Z,5.59
2023-04-12T01:42:21.642Z,5.64
2023-04-12T01:47:25.942Z,5.69
2023-04-12T01:52:32.351Z,5.72
2023-04-12T01:57:35.335Z,5.84
2023-04-12T02:02:42.206Z,5.90
2023-04-12T02:07:46.901Z,5.90
2023-04-12T02:12:54.406Z,5.91
2023-04-12T02:17:56.433Z,5.90
2023-04-12T02:23:01.051Z,5.91
2023-04-12T02:28:02.735Z,5.89
2023-04-12T02:33:09.444Z,5.89
2023-04-12T02:38:14.221Z,5.94
2023-04-12T02:43:21.657Z,6.00
2023-04-12T02:48:32.582Z,6.06
2023-04-12T02:53:34.796Z,6.09
2023-04-12T02:58:48.565Z,6.08
2023-04-12T03:03:58.634Z,6.07
2023-04-12T03:09:16.254Z,6.03
2023-04-12T03:14:18.513Z,5.98
2023-04-12T03:19:20.973Z,5.91
2023-04-12T03:24:29.571Z,5.88
2023-04-12T03:29:31.833Z,5.89
2023-04-12T03:34:37.300Z,5.86
2023-04-12T03:39:48.562Z,5.85
2023-04-12T03:44:56.739Z,5.87
2023-04-12T03:50:11.610Z,5.84
2023-04-12T03:55:21.678Z,5.79
2023-04-12T04:00:31.755Z,5.70
2023-04-12T04:05:42.480Z,5.68
2023-04-12T04:10:46.180Z,5.72
2023-04-12T04:15:56.971Z,5.78
2023-04-12T04:21:01.839Z,5.83
2023-04-12T04:26:11.788Z,5.85
2023-04-12T04:31:39.588Z,5.92
2023-04-12T04:36:42.944Z,5.98
2023-04-12T04:41:54.501Z,6.00
2023-04-12T04:47:08.711Z,6.30
2023-04-12T04:52:10.690Z,6.74
2023-04-12T04:57:12.426Z,6.74
2023-04-12T05:02:16.709Z,6.82
2023-04-12T05:07:22.051Z,6.90
2023-04-12T05:12:24.450Z,6.60
2023-04-12T05:17:29.958Z,6.59
2023-04-12T05:22:33.957Z,6.63
2023-04-12T05:27:35.888Z,6.58
2023-04-12T05:32:47.402Z,6.49
2023-04-12T05:37:54.232Z,6.46
2023-04-12T05:42:58.397Z,6.49
2023-04-12T05:48:01.548Z,6.50
2023-04-12T05:53:04.389Z,6.60
2023-04-12T05:58:10.528Z,6.70
2023-04-12T06:03:12.902Z,6.71
2023-04-12T06:08:17.466Z,6.81
2023-04-12T06:13:22.689Z,6.91
2023-04-12T06:18:24.799Z,6.94
2023-04-12T06:23:26.997Z,6.97
2023-04-12T06:28:33.628Z,6.96
2023-04-12T06:33:40.268Z,6.97
2023-04-12T06:38:43.954Z,7.01
2023-04-12T06:43:45.744Z,7.07
2023-04-12T06:48:49.758Z,7.16
2023-04-12T06:53:54.192Z,7.31
2023-04-12T06:59:00.837Z,7.30
2023-04-12T07:04:03.693Z,7.40
2023-04-12T07:09:05.723Z,7.55
2023-04-12T07:14:09.631Z,7.56
2023-04-12T07:19:14.380Z,7.45
2023-04-12T07:24:18.381Z,7.39
2023-04-12T07:29:22.405Z,7.37
2023-04-12T07:34:26.691Z,7.49
2023-04-12T07:39:29.903Z,7.67
2023-04-12T07:44:36.326Z,7.76
2023-04-12T07:49:42.148Z,7.87
2023-04-12T07:54:44.003Z,7.87
2023-04-12T07:59:45.660Z,7.80
2023-04-12T08:04:49.595Z,7.70
2023-04-12T08:09:54.524Z,7.67
2023-04-12T08:15:01.006Z,7.70
2023-04-12T08:20:06.119Z,7.94
2023-04-12T08:25:08.802Z,7.85
2023-04-12T08:30:11.792Z,7.81
2023-04-12T08:35:14.955Z,7.75
2023-04-12T08:40:19.084Z,7.79
2023-04-12T08:45:21.521Z,7.87
2023-04-12T08:50:28.633Z,7.90
2023-04-12T08:55:32.395Z,7.91
2023-04-12T09:00:34.611Z,8.00
2023-04-12T09:05:36.384Z,8.08
2023-04-12T09:10:38.601Z,8.18
2023-04-12T09:15:49.138Z,8.20
2023-04-12T09:20:51.355Z,8.19
2023-04-12T09:25:55.605Z,8.13
2023-04-12T09:30:58.661Z,8.09
2023-04-12T09:36:05.401Z,7.99
2023-04-12T09:41:26.460Z,7.93
2023-04-12T09:46:29.489Z,7.95
2023-04-12T09:51:34.163Z,8.07
2023-04-12T09:56:37.821Z,8.11
2023-04-12T10:01:42.085Z,8.47
2023-04-12T10:06:48.358Z,8.51
2023-04-12T10:11:53.536Z,8.28
2023-04-12T10:17:02.052Z,8.43
2023-04-12T10:22:07.108Z,8.68
2023-04-12T10:27:15.488Z,8.75
2023-04-12T10:32:22.944Z,8.70
2023-04-12T10:38:04.265Z,8.70
2023-04-12T10:43:25.105Z,8.76
2023-04-12T10:48:59.344Z,8.69
2023-04-12T10:54:12.337Z,8.52
2023-04-12T10:59:15.420Z,8.40
2023-04-12T11:04:25.621Z,8.38
2023-04-12T11:09:48.694Z,8.32
2023-04-12T11:15:04.279Z,8.34
2023-04-12T11:20:16.888Z,8.22
2023-04-12T11:25:21.188Z,8.30
2023-04-12T11:30:28.400Z,8.44
2023-04-12T11:35:33.153Z,8.59
2023-04-12T11:40:37.891Z,8.83
2023-04-12T11:45:39.797Z,9.29
2023-04-12T11:50:41.786Z,9.53
2023-04-12T11:55:49.505Z,9.70
2023-04-12T12:00:51.450Z,9.88
2023-04-12T12:05:56.555Z,9.84
2023-04-12T12:11:07.952Z,9.76
2023-04-12T12:16:10.978Z,9.64
2023-04-12T12:21:13.759Z,9.58
2023-04-12T12:26:28.354Z,9.64
2023-04-12T12:31:33.655Z,9.85
2023-04-12T12:36:36.749Z,9.95
2023-04-12T12:41:39.613Z,10.12
2023-04-12T12:46:55.326Z,10.30
2023-04-12T12:52:02.516Z,10.44
2023-04-12T12:57:04.542Z,10.23
2023-04-12T13:02:07.642Z,10.35
2023-04-12T13:07:09.866Z,10.44
2023-04-12T13:12:11.841Z,10.64
2023-04-12T13:17:16.857Z,10.72
2023-04-12T13:22:18.688Z,11.51
2023-04-12T13:27:22.765Z,11.91
2023-04-12T13:32:30.151Z,12.23
2023-04-12T13:37:34.442Z,12.72
2023-04-12T13:42:42.974Z,12.94
2023-04-12T13:47:44.766Z,12.42
2023-04-12T13:52:46.522Z,12.34
2023-04-12T13:57:48.200Z,12.44
2023-04-12T14:02:52.228Z,12.58
2023-04-12T14:07:56.559Z,12.68
2023-04-12T14:12:58.316Z,12.85
2023-04-12T14:18:00.215Z,12.44
2023-04-12T14:23:06.477Z,12.07
2023-04-12T14:28:09.562Z,12.01
2023-04-12T14:33:14.055Z,11.90
2023-04-12T14:38:15.775Z,11.86
2023-04-12T14:43:20.001Z,11.77
2023-04-12T14:48:29.222Z,12.45
2023-04-12T14:53:31.542Z,13.82
2023-04-12T14:58:38.450Z,17.44
2023-04-12T15:03:42.442Z,17.73
2023-04-12T15:08:44.420Z,17.31
2023-04-12T15:13:46.182Z,16.05
2023-04-12T15:18:52.708Z,15.15
2023-04-12T15:23:54.471Z,14.98
2023-04-12T15:28:56.461Z,14.86
2023-04-12T15:33:58.853Z,14.30
2023-04-12T15:39:06.683Z,13.47
2023-04-12T15:44:14.123Z,12.94
2023-04-12T15:49:16.069Z,12.30
2023-04-12T15:54:17.918Z,11.12
2023-04-12T15:59:21.956Z,10.22
2023-04-12T16:04:23.736Z,9.52
2023-04-12T16:09:27.845Z,9.36
2023-04-12T16:14:29.655Z,8.91
2023-04-12T16:19:31.416Z,8.63
2023-04-12T16:24:33.243Z,8.62
2023-04-12T16:29:37.820Z,9.09
2023-04-12T16:34:44.672Z,8.78
2023-04-12T16:39:46.622Z,8.44
2023-04-12T16:44:52.035Z,8.52
2023-04-12T16:49:57.403Z,8.47
2023-04-12T16:55:00.562Z,8.39
2023-04-12T17:00:28.021Z,8.30
2023-04-12T17:05:30.281Z,8.28
2023-04-12T17:10:35.186Z,8.26
2023-04-12T17:15:38.997Z,8.22
2023-04-12T17:20:44.006Z,8.15
2023-04-12T17:25:46.380Z,8.10
2023-04-12T17:30:50.700Z,8.12
2023-04-12T17:35:58.017Z,8.04
2023-04-12T17:40:59.763Z,7.86
2023-04-12T17:46:04.109Z,7.76
2023-04-12T17:51:09.864Z,7.74
2023-04-12T17:56:13.907Z,7.70
2023-04-12T18:01:19.309Z,7.56
2023-04-12T18:06:23.089Z,7.49
2023-04-12T18:11:27.089Z,7.42
2023-04-12T18:16:32.685Z,7.30
2023-04-12T18:21:34.860Z,7.27
2023-04-12T18:26:41.131Z,7.30
2023-04-12T18:31:45.740Z,7.35
2023-04-12T18:36:49.843Z,7.37
2023-04-12T18:41:57.131Z,7.33
2023-04-12T18:46:58.883Z,7.33
2023-04-12T18:52:01.037Z,7.29
2023-04-12T18:57:03.578Z,7.21
2023-04-12T19:02:05.708Z,7.10
2023-04-12T19:07:08.192Z,6.96
2023-04-12T19:12:09.933Z,6.80
2023-04-12T19:17:11.780Z,6.66
2023-04-12T19:22:13.527Z,6.53
2023-04-12T19:27:15.690Z,6.46
2023-04-12T19:32:18.766Z,6.56
2023-04-12T19:37:22.083Z,6.68
2023-04-12T19:42:26.396Z,6.72
2023-04-12T19:47:29.047Z,6.74
2023-04-12T19:52:30.904Z,6.73
2023-04-12T19:57:38.548Z,6.74
2023-04-12T20:02:40.350Z,6.78
2023-04-12T20:07:45.486Z,6.82
2023-04-12T20:12:49.603Z,7.26
2023-04-12T20:17:54.132Z,7.14
2023-04-12T20:22:58.957Z,7.06
2023-04-12T20:28:02.891Z,6.97
2023-04-12T20:33:07.078Z,6.89
2023-04-12T20:38:12.021Z,6.76
2023-04-12T20:43:18.533Z,6.64
2023-04-12T20:48:22.420Z,6.48
2023-04-12T20:53:24.409Z,6.35
2023-04-12T20:58:36.747Z,6.17
2023-04-12T21:03:44.662Z,5.96
2023-04-12T21:08:50.549Z,5.80
2023-04-12T21:13:55.317Z,5.70
2023-04-12T21:18:59.574Z,5.59
2023-04-12T21:24:04.005Z,5.48
2023-04-12T21:29:05.713Z,5.35
2023-04-12T21:34:12.355Z,5.25
2023-04-12T21:39:14.184Z,5.16
2023-04-12T21:44:18.209Z,5.07
2023-04-12T21:49:19.947Z,4.95
2023-04-12T21:54:24.230Z,4.85
2023-04-12T21:59:26.664Z,4.75
2023-04-12T22:04:33.083Z,4.68
2023-04-12T22:09:35.804Z,4.56
2023-04-12T22:14:46.686Z,4.41
2023-04-12T22:19:48.544Z,4.28
2023-04-12T22:24:53.846Z,4.27
2023-04-12T22:29:55.522Z,4.27
2023-04-12T22:35:08.349Z,4.29
2023-04-12T22:40:12.495Z,4.28
2023-04-12T22:45:17.141Z,4.24
2023-04-12T22:50:19.666Z,4.18
2023-04-12T22:55:22.230Z,4.10
2023-04-12T23:00:26.973Z,4.01
2023-04-12T23:05:28.902Z,3.96
2023-04-12T23:10:33.656Z,3.90
2023-04-12T23:15:35.659Z,3.83
2023-04-12T23:20:38.206Z,3.81
2023-04-12T23:25:40.871Z,3.74
2023-04-12T23:30:49.957Z,3.72
2023-04-12T23:35:56.089Z,3.72
2023-04-12T23:41:04.260Z,3.75
2023-04-12T23:46:06.689Z,3.82
2023-04-12T23:51:11.054Z,3.81
2023-04-12T23:56:17.274Z,3.76
